Time;durP1;ratioP1;P1;durP2;ratioP2;P2;SDS_P1;SDS_P2;PMS_P1;PMS_P2;Temp;Humidity;BMP_temperature;BMP_pressure;BME280_temperature;BME280_humidity;BME280_pressure;Samples;Min_cycle;Max_cycle;Signal;HPM_P1;HPM_P2
2021/05/22 00:01:23;;;;;;;0.55;0.50;;;9.20;99.90;;;;;;5094384;28;20245;-42
2021/05/22 00:03:51;;;;;;;0.60;0.60;;;9.10;99.90;;;;;;5094242;28;20211;-43
2021/05/22 00:06:19;;;;;;;0.60;0.60;;;9.10;99.90;;;;;;5094321;28;20305;-42
2021/05/22 00:08:47;;;;;;;1.05;1.02;;;9.10;99.90;;;;;;5094286;28;20242;-42
2021/05/22 00:11:15;;;;;;;0.50;0.50;;;9.10;99.90;;;;;;5094152;28;20235;-41
2021/05/22 00:13:42;;;;;;;0.63;0.55;;;9.10;99.90;;;;;;5093841;28;20242;-41
2021/05/22 00:16:10;;;;;;;0.95;0.70;;;9.10;99.90;;;;;;5094212;28;20230;-41
2021/05/22 00:18:37;;;;;;;0.63;0.60;;;9.00;99.90;;;;;;5093939;28;20342;-43
2021/05/22 00:21:05;;;;;;;5.80;0.77;;;9.00;99.90;;;;;;5094142;28;20606;-42
2021/05/22 00:23:33;;;;;;;1.38;0.68;;;9.00;99.90;;;;;;5094175;28;20214;-41
2021/05/22 00:26:01;;;;;;;0.60;0.60;;;9.00;99.90;;;;;;5093807;28;20241;-42
2021/05/22 00:28:29;;;;;;;0.75;0.60;;;9.00;99.90;;;;;;5093903;28;20214;-41
2021/05/22 00:30:56;;;;;;;1.33;1.23;;;8.90;99.90;;;;;;5093891;28;20262;-41
2021/05/22 00:33:24;;;;;;;1.65;0.88;;;9.00;99.90;;;;;;5093642;28;20215;-41
2021/05/22 00:35:51;;;;;;;1.00;0.70;;;8.90;99.90;;;;;;5093642;28;20249;-42
2021/05/22 00:38:19;;;;;;;0.90;0.60;;;8.90;99.90;;;;;;5093777;28;20299;-42
2021/05/22 00:40:46;;;;;;;0.93;0.52;;;8.90;99.90;;;;;;5093511;28;20226;-41
2021/05/22 00:43:15;;;;;;;0.70;0.70;;;8.90;99.90;;;;;;5093721;28;20810;-40
2021/05/22 00:45:43;;;;;;;0.75;0.73;;;8.80;99.90;;;;;;5094092;28;20214;-41
2021/05/22 00:48:11;;;;;;;0.60;0.60;;;8.70;99.90;;;;;;5093780;28;20242;-42
2021/05/22 00:50:41;;;;;;;0.50;0.45;;;8.70;99.90;;;;;;5093625;28;20309;-43
2021/05/22 00:53:10;;;;;;;0.57;0.55;;;8.70;99.90;;;;;;5093627;28;20289;-41
2021/05/22 00:55:39;;;;;;;0.60;0.60;;;8.70;99.90;;;;;;5093762;28;20207;-42
2021/05/22 00:58:07;;;;;;;0.57;0.57;;;8.60;99.90;;;;;;5093468;28;20267;-42
2021/05/22 01:00:40;;;;;;;0.60;0.50;;;8.60;99.90;;;;;;5093199;28;20675;-42
2021/05/22 01:03:09;;;;;;;0.50;0.50;;;8.60;99.90;;;;;;5093420;28;20234;-43
2021/05/22 01:05:42;;;;;;;0.82;0.52;;;8.60;99.90;;;;;;5093220;28;20264;-42
2021/05/22 01:08:19;;;;;;;0.63;0.50;;;8.50;99.90;;;;;;5093409;28;20294;-42
2021/05/22 01:10:51;;;;;;;0.68;0.50;;;8.50;99.90;;;;;;5093234;28;20329;-42
2021/05/22 01:13:19;;;;;;;0.68;0.63;;;8.40;99.90;;;;;;5093257;28;20318;-42
2021/05/22 01:15:51;;;;;;;0.82;0.60;;;8.40;99.90;;;;;;5092924;28;20293;-41
2021/05/22 01:18:19;;;;;;;0.88;0.40;;;8.40;99.90;;;;;;5092963;28;20733;-41
2021/05/22 01:20:54;;;;;;;1.40;0.43;;;8.40;99.90;;;;;;5093308;28;20238;-42
2021/05/22 01:23:27;;;;;;;0.60;0.55;;;8.40;99.90;;;;;;5093007;28;20514;-42
2021/05/22 01:25:57;;;;;;;1.00;0.60;;;8.40;99.90;;;;;;5093071;28;20206;-42
2021/05/22 01:28:25;;;;;;;0.65;0.40;;;8.30;99.90;;;;;;5092367;28;20268;-42
2021/05/22 01:30:52;;;;;;;0.30;0.30;;;8.30;99.90;;;;;;5093318;28;20275;-42
2021/05/22 01:33:21;;;;;;;0.30;0.30;;;8.30;99.90;;;;;;5092993;28;20233;-42
2021/05/22 01:35:50;;;;;;;1.55;0.47;;;8.30;99.90;;;;;;5092949;28;20301;-41
2021/05/22 01:38:17;;;;;;;0.88;0.47;;;8.30;99.90;;;;;;5092946;28;20207;-42
2021/05/22 01:40:45;;;;;;;0.63;0.52;;;8.30;99.90;;;;;;5092776;28;20285;-42
2021/05/22 01:43:14;;;;;;;0.40;0.40;;;8.30;99.90;;;;;;5092598;28;20242;-42
2021/05/22 01:45:44;;;;;;;0.38;0.38;;;8.30;99.90;;;;;;5092953;28;20294;-41
2021/05/22 01:48:14;;;;;;;0.70;0.40;;;8.40;99.90;;;;;;5092881;28;20210;-42
2021/05/22 01:50:44;;;;;;;0.45;0.45;;;8.40;99.90;;;;;;5092311;28;20268;-42
2021/05/22 01:53:14;;;;;;;5.07;0.40;;;8.30;99.90;;;;;;5092476;28;20289;-41
2021/05/22 01:55:42;;;;;;;0.32;0.32;;;8.30;99.90;;;;;;5092431;28;20297;-42
2021/05/22 01:58:11;;;;;;;0.35;0.35;;;8.30;99.90;;;;;;5092486;28;20207;-43
2021/05/22 02:00:40;;;;;;;0.88;0.47;;;8.40;99.90;;;;;;5092416;28;20199;-42
2021/05/22 02:03:10;;;;;;;0.90;0.63;;;8.30;99.90;;;;;;5092260;28;20245;-41
2021/05/22 02:05:39;;;;;;;0.35;0.35;;;8.30;99.90;;;;;;5092386;28;20283;-42
2021/05/22 02:08:11;;;;;;;0.43;0.43;;;8.30;99.90;;;;;;5092357;28;20211;-42
2021/05/22 02:10:40;;;;;;;0.70;0.65;;;8.30;99.90;;;;;;5092130;28;20693;-41
2021/05/22 02:13:08;;;;;;;0.47;0.47;;;8.30;99.90;;;;;;5092088;28;20246;-42
2021/05/22 02:15:40;;;;;;;0.40;0.40;;;8.40;99.90;;;;;;5092261;28;20252;-41
2021/05/22 02:18:11;;;;;;;1.15;0.50;;;8.40;99.90;;;;;;5091805;28;20258;-43
2021/05/22 02:20:39;;;;;;;0.65;0.43;;;8.40;99.90;;;;;;5091799;28;20665;-41
2021/05/22 02:23:08;;;;;;;1.88;0.57;;;8.40;99.90;;;;;;5092026;28;20261;-42
2021/05/22 02:25:35;;;;;;;0.57;0.57;;;8.40;99.90;;;;;;5092153;28;20206;-41
2021/05/22 02:28:06;;;;;;;1.10;0.55;;;8.40;99.90;;;;;;5092137;28;20206;-41
2021/05/22 02:30:36;;;;;;;0.75;0.50;;;8.40;99.90;;;;;;5091960;28;20688;-42
2021/05/22 02:33:05;;;;;;;0.60;0.60;;;8.40;99.90;;;;;;5091767;28;20264;-42
2021/05/22 02:35:36;;;;;;;0.95;0.60;;;8.40;99.90;;;;;;5092014;28;20242;-41
2021/05/22 02:38:05;;;;;;;1.83;0.60;;;8.40;99.90;;;;;;5092054;28;20654;-44
2021/05/22 02:40:33;;;;;;;2.67;0.60;;;8.40;99.90;;;;;;5094470;28;20618;-42
2021/05/22 02:43:04;;;;;;;1.23;0.75;;;8.40;99.90;;;;;;5096037;28;20589;-42
2021/05/22 02:45:35;;;;;;;1.60;0.90;;;8.50;99.90;;;;;;5095891;28;20203;-43
2021/05/22 02:48:04;;;;;;;3.40;0.68;;;8.50;99.90;;;;;;5095686;28;20242;-41
2021/05/22 02:50:35;;;;;;;1.35;0.70;;;8.50;99.90;;;;;;5095590;28;20261;-41
2021/05/22 02:53:03;;;;;;;1.65;0.77;;;8.50;99.90;;;;;;5095854;28;20242;-41
2021/05/22 02:55:32;;;;;;;0.65;0.65;;;8.60;99.90;;;;;;5095619;28;20203;-43
2021/05/22 02:58:01;;;;;;;0.50;0.43;;;8.50;99.90;;;;;;5095788;28;20261;-43
2021/05/22 03:00:28;;;;;;;1.08;0.73;;;8.60;99.90;;;;;;5095914;28;20235;-42
2021/05/22 03:02:57;;;;;;;0.60;0.60;;;8.60;99.90;;;;;;5095851;28;20241;-44
2021/05/22 03:05:24;;;;;;;1.83;1.58;;;8.60;99.90;;;;;;5095860;28;20257;-42
2021/05/22 03:07:52;;;;;;;0.82;0.70;;;8.60;99.90;;;;;;5095779;28;20213;-42
2021/05/22 03:10:20;;;;;;;0.65;0.65;;;8.60;99.90;;;;;;5095357;28;20756;-44
2021/05/22 03:12:48;;;;;;;0.73;0.73;;;8.60;99.90;;;;;;5095396;28;20238;-43
2021/05/22 03:15:16;;;;;;;0.80;0.80;;;8.60;99.90;;;;;;5095515;28;20210;-43
2021/05/22 03:17:43;;;;;;;5.88;1.13;;;8.60;99.90;;;;;;5095351;28;20738;-42
2021/05/22 03:20:11;;;;;;;0.70;0.70;;;8.60;99.90;;;;;;5095626;28;20242;-42
2021/05/22 03:22:38;;;;;;;1.17;0.80;;;8.60;99.90;;;;;;5095421;28;20290;-42
2021/05/22 03:25:08;;;;;;;0.95;0.75;;;8.50;99.90;;;;;;5095116;28;20234;-42
2021/05/22 03:27:37;;;;;;;0.93;0.82;;;8.60;99.90;;;;;;5094980;28;20610;-42
2021/05/22 03:30:06;;;;;;;2.65;2.45;;;8.60;99.90;;;;;;5094920;28;20275;-42
2021/05/22 03:32:34;;;;;;;2.15;0.77;;;8.50;99.90;;;;;;5095141;28;20207;-41
2021/05/22 03:35:02;;;;;;;4.78;3.75;;;8.50;99.90;;;;;;5095182;28;20234;-41
2021/05/22 03:37:29;;;;;;;0.93;0.93;;;8.60;99.90;;;;;;5094839;28;20210;-41
2021/05/22 03:39:57;;;;;;;2.67;0.95;;;8.60;99.90;;;;;;5094776;28;20245;-40
2021/05/22 03:42:25;;;;;;;0.60;0.60;;;8.60;99.90;;;;;;5095317;28;20207;-41
2021/05/22 03:44:53;;;;;;;1.70;1.60;;;8.60;99.90;;;;;;5094934;28;20726;-41
2021/05/22 03:47:21;;;;;;;0.60;0.60;;;8.60;99.90;;;;;;5094751;28;20293;-41
2021/05/22 03:49:48;;;;;;;2.97;2.35;;;8.70;99.90;;;;;;5094813;28;20211;-42
2021/05/22 03:52:16;;;;;;;4.63;4.05;;;8.60;99.90;;;;;;5094062;28;20303;-41
2021/05/22 03:54:45;;;;;;;2.15;2.05;;;8.60;99.90;;;;;;5094555;28;20206;-42
2021/05/22 03:57:12;;;;;;;2.15;1.63;;;8.70;99.90;;;;;;5094717;28;20279;-41
2021/05/22 03:59:41;;;;;;;3.25;2.40;;;8.70;99.90;;;;;;5094573;28;20294;-42
2021/05/22 04:02:08;;;;;;;3.03;2.47;;;8.60;99.90;;;;;;5094396;28;20239;-42
2021/05/22 04:04:36;;;;;;;2.20;1.70;;;8.70;99.90;;;;;;5094187;28;20257;-41
2021/05/22 04:07:03;;;;;;;1.48;1.38;;;8.60;99.90;;;;;;5094141;28;20358;-41
2021/05/22 04:09:31;;;;;;;1.15;1.00;;;8.70;99.90;;;;;;5094316;28;20614;-41
2021/05/22 04:11:58;;;;;;;1.20;1.10;;;8.70;99.90;;;;;;5094188;28;20223;-41
2021/05/22 04:14:25;;;;;;;1.63;1.10;;;8.70;99.90;;;;;;5094332;28;20641;-41
2021/05/22 04:16:54;;;;;;;1.27;1.17;;;8.80;99.90;;;;;;5094218;28;20638;-42
2021/05/22 04:19:21;;;;;;;2.42;0.90;;;8.70;99.90;;;;;;5094151;28;20707;-41
2021/05/22 04:21:49;;;;;;;1.10;0.77;;;8.80;99.90;;;;;;5094219;28;20206;-42
2021/05/22 04:24:17;;;;;;;4.57;3.45;;;8.80;99.90;;;;;;5094108;28;20241;-44
2021/05/22 04:26:44;;;;;;;1.98;1.58;;;8.80;99.90;;;;;;5094046;28;20310;-43
2021/05/22 04:29:12;;;;;;;1.73;1.63;;;8.80;99.90;;;;;;5094066;28;20294;-43
2021/05/22 04:31:40;;;;;;;1.20;1.10;;;8.90;99.90;;;;;;5093781;28;20265;-41
2021/05/22 04:34:10;;;;;;;1.77;1.35;;;8.90;99.90;;;;;;5094007;28;20209;-43
2021/05/22 04:36:38;;;;;;;1.02;1.00;;;8.90;99.90;;;;;;5093925;28;20203;-41
2021/05/22 04:39:06;;;;;;;1.50;1.15;;;9.00;99.90;;;;;;5094139;28;20215;-41
2021/05/22 04:41:34;;;;;;;2.13;1.92;;;9.00;99.90;;;;;;5093695;28;20249;-42
2021/05/22 04:44:01;;;;;;;0.73;0.68;;;9.10;99.90;;;;;;5093840;28;20699;-42
2021/05/22 04:46:28;;;;;;;0.85;0.60;;;9.10;99.90;;;;;;5093536;28;20206;-41
2021/05/22 04:48:56;;;;;;;0.70;0.65;;;9.10;99.90;;;;;;5093551;28;20210;-42
2021/05/22 04:51:25;;;;;;;1.05;0.80;;;9.20;99.90;;;;;;5093575;28;20230;-41
2021/05/22 04:54:02;;;;;;;0.65;0.40;;;9.20;99.90;;;;;;5093395;28;20218;-41
2021/05/22 04:56:29;;;;;;;3.50;1.45;;;9.20;99.90;;;;;;5093455;28;20293;-42
2021/05/22 04:58:57;;;;;;;0.60;0.60;;;9.20;99.90;;;;;;5093177;28;20241;-42
2021/05/22 05:01:24;;;;;;;0.32;0.32;;;9.30;99.90;;;;;;5093166;28;20632;-41
2021/05/22 05:03:52;;;;;;;2.55;0.63;;;9.30;99.90;;;;;;5092652;28;20210;-42
2021/05/22 05:06:20;;;;;;;1.63;0.63;;;9.30;99.90;;;;;;5093189;28;20688;-42
2021/05/22 05:08:48;;;;;;;1.30;0.68;;;9.30;99.90;;;;;;5093374;28;20297;-42
2021/05/22 05:11:16;;;;;;;2.80;1.40;;;9.30;99.90;;;;;;5092923;28;20222;-39
2021/05/22 05:13:44;;;;;;;0.65;0.60;;;9.40;99.90;;;;;;5093035;28;20306;-40
2021/05/22 05:16:13;;;;;;;0.98;0.60;;;9.40;99.90;;;;;;5093172;28;20297;-40
2021/05/22 05:18:41;;;;;;;0.45;0.45;;;9.40;99.90;;;;;;5092800;28;20230;-41
2021/05/22 05:21:08;;;;;;;1.27;0.45;;;9.40;99.90;;;;;;5092859;28;20284;-41
2021/05/22 05:23:37;;;;;;;0.60;0.60;;;9.40;99.90;;;;;;5092987;28;20280;-40
2021/05/22 05:26:06;;;;;;;0.70;0.50;;;9.40;99.90;;;;;;5093041;28;20217;-42
2021/05/22 05:28:33;;;;;;;0.93;0.70;;;9.40;99.90;;;;;;5093295;28;20202;-41
2021/05/22 05:31:01;;;;;;;0.80;0.60;;;9.40;99.90;;;;;;5092776;28;20226;-41
2021/05/22 05:33:29;;;;;;;1.08;0.98;;;9.30;99.90;;;;;;5092546;28;20233;-41
2021/05/22 05:35:56;;;;;;;1.27;0.80;;;9.30;99.90;;;;;;5092519;28;20699;-40
2021/05/22 05:38:24;;;;;;;2.50;0.70;;;9.30;99.90;;;;;;5092615;28;20252;-40
2021/05/22 05:40:54;;;;;;;1.02;0.77;;;9.30;99.90;;;;;;5092525;28;20297;-40
2021/05/22 05:43:22;;;;;;;0.93;0.63;;;9.40;99.90;;;;;;5092602;28;20207;-42
2021/05/22 05:45:50;;;;;;;1.23;0.63;;;9.50;99.90;;;;;;5092293;28;20294;-40
2021/05/22 05:48:17;;;;;;;1.45;1.05;;;9.60;99.90;;;;;;5092689;28;20308;-42
2021/05/22 05:50:45;;;;;;;1.80;1.08;;;9.80;99.90;;;;;;5092670;28;20584;-39
2021/05/22 05:53:12;;;;;;;1.20;0.90;;;9.90;99.90;;;;;;5092402;28;20662;-39
2021/05/22 05:55:39;;;;;;;1.92;1.25;;;10.10;99.90;;;;;;5092509;28;20630;-39
2021/05/22 05:58:07;;;;;;;2.15;0.80;;;10.30;99.90;;;;;;5092614;28;20238;-38
2021/05/22 06:00:35;;;;;;;2.47;0.68;;;10.50;99.90;;;;;;5092420;28;20693;-39
2021/05/22 06:03:03;;;;;;;1.40;0.57;;;10.60;99.90;;;;;;5092558;28;20225;-37
2021/05/22 06:05:30;;;;;;;1.75;0.68;;;10.70;99.90;;;;;;5092348;28;20658;-37
2021/05/22 06:07:58;;;;;;;2.90;0.90;;;10.80;99.90;;;;;;5092203;28;20577;-38
2021/05/22 06:10:25;;;;;;;2.25;0.90;;;10.90;99.90;;;;;;5092349;28;20683;-37
2021/05/22 06:12:53;;;;;;;1.10;0.73;;;11.00;99.90;;;;;;5092173;28;20325;-37
2021/05/22 06:15:22;;;;;;;2.10;0.80;;;11.00;99.90;;;;;;5092107;28;20230;-37
2021/05/22 06:17:52;;;;;;;2.83;0.80;;;11.00;99.90;;;;;;5092127;28;20242;-38
2021/05/22 06:20:20;;;;;;;1.38;1.00;;;10.90;99.90;;;;;;5092010;28;20252;-40
2021/05/22 06:22:47;;;;;;;3.67;2.05;;;10.90;99.90;;;;;;5091973;28;20290;-41
2021/05/22 06:25:15;;;;;;;2.80;1.05;;;11.00;99.90;;;;;;5092106;28;20301;-41
2021/05/22 06:27:42;;;;;;;4.20;2.65;;;11.10;99.90;;;;;;5092077;28;20267;-41
2021/05/22 06:30:11;;;;;;;7.63;5.38;;;11.20;99.90;;;;;;5091961;28;20210;-41
2021/05/22 06:32:38;;;;;;;3.15;1.70;;;11.30;99.90;;;;;;5091913;28;20280;-41
2021/05/22 06:35:08;;;;;;;4.05;3.25;;;11.50;99.90;;;;;;5091897;28;20256;-42
2021/05/22 06:37:35;;;;;;;4.60;3.92;;;11.50;99.90;;;;;;5092107;28;20244;-40
2021/05/22 06:40:03;;;;;;;18.48;12.57;;;11.60;99.90;;;;;;5091813;28;20249;-41
2021/05/22 06:42:32;;;;;;;12.93;10.27;;;11.70;99.90;;;;;;5091760;28;20205;-41
2021/05/22 06:45:03;;;;;;;5.75;3.47;;;11.70;99.90;;;;;;5091703;28;20206;-42
2021/05/22 06:47:30;;;;;;;4.38;1.27;;;11.80;99.90;;;;;;5091697;28;20207;-42
2021/05/22 06:49:58;;;;;;;3.25;1.63;;;11.90;99.90;;;;;;5091665;28;20690;-42
2021/05/22 06:52:26;;;;;;;3.50;1.85;;;12.00;99.90;;;;;;5091408;28;20355;-41
2021/05/22 06:54:54;;;;;;;7.45;1.80;;;12.10;99.90;;;;;;5091707;28;20644;-40
2021/05/22 06:57:21;;;;;;;8.00;1.50;;;12.10;99.90;;;;;;5091524;28;20782;-40
2021/05/22 06:59:49;;;;;;;2.22;1.08;;;12.10;99.90;;;;;;5091375;28;20242;-41
2021/05/22 07:02:16;;;;;;;3.90;1.20;;;12.20;99.90;;;;;;5091519;28;20289;-41
2021/05/22 07:04:44;;;;;;;3.90;1.42;;;12.40;99.90;;;;;;5091496;28;20306;-43
2021/05/22 07:07:11;;;;;;;4.82;1.02;;;12.50;99.90;;;;;;5091603;28;20610;-41
2021/05/22 07:09:39;;;;;;;2.42;1.33;;;12.60;99.90;;;;;;5091825;28;20232;-41
2021/05/22 07:12:09;;;;;;;1.92;0.90;;;12.70;99.90;;;;;;5091615;28;20261;-40
2021/05/22 07:14:37;;;;;;;5.30;3.55;;;12.70;99.90;;;;;;5091431;28;20285;-40
2021/05/22 07:17:04;;;;;;;4.47;1.50;;;12.90;99.90;;;;;;5091363;28;20207;-42
2021/05/22 07:19:32;;;;;;;7.55;2.08;;;13.00;99.90;;;;;;5091367;28;20285;-42
2021/05/22 07:22:00;;;;;;;3.08;1.42;;;13.10;99.90;;;;;;5091647;28;20249;-41
2021/05/22 07:24:28;;;;;;;3.20;1.25;;;13.30;99.90;;;;;;5091352;28;20598;-42
2021/05/22 07:26:56;;;;;;;4.63;1.77;;;13.50;99.90;;;;;;5094265;28;20645;-42
2021/05/22 07:29:25;;;;;;;4.72;1.77;;;13.70;99.90;;;;;;5095051;28;20228;-42
2021/05/22 07:31:52;;;;;;;3.15;2.75;;;13.90;99.90;;;;;;5095097;28;20317;-44
2021/05/22 07:34:24;;;;;;;3.15;1.45;;;14.00;99.20;;;;;;5095287;28;20242;-44
2021/05/22 07:36:52;;;;;;;3.30;1.48;;;13.90;99.50;;;;;;5094902;28;20267;-46
2021/05/22 07:39:20;;;;;;;2.45;1.00;;;14.00;99.30;;;;;;5094910;28;20245;-43
2021/05/22 07:41:48;;;;;;;4.55;1.33;;;14.10;98.80;;;;;;5094629;28;20234;-43
2021/05/22 07:44:16;;;;;;;2.63;1.30;;;14.10;98.30;;;;;;5094625;28;20306;-42
2021/05/22 07:46:49;;;;;;;2.80;1.10;;;14.30;98.30;;;;;;5094819;28;20574;-43
2021/05/22 07:49:17;;;;;;;1.70;0.90;;;14.30;97.80;;;;;;5094477;28;20661;-43
2021/05/22 07:51:45;;;;;;;3.75;1.17;;;14.20;97.70;;;;;;5094321;28;20669;-44
2021/05/22 07:54:13;;;;;;;2.17;1.10;;;14.10;97.60;;;;;;5094771;28;20214;-42
2021/05/22 07:56:41;;;;;;;1.75;0.90;;;14.00;97.60;;;;;;5094572;28;20300;-42
2021/05/22 07:59:08;;;;;;;3.33;1.20;;;14.10;97.50;;;;;;5094437;28;20293;-43
2021/05/22 08:01:36;;;;;;;4.80;1.40;;;14.10;97.10;;;;;;5094644;28;20635;-42
2021/05/22 08:04:04;;;;;;;1.70;0.95;;;14.20;97.10;;;;;;5094522;28;20260;-45
2021/05/22 08:06:32;;;;;;;4.30;0.80;;;14.30;96.50;;;;;;5094302;28;20213;-45
2021/05/22 08:08:59;;;;;;;4.03;1.25;;;14.50;96.10;;;;;;5094663;28;20234;-43
2021/05/22 08:11:27;;;;;;;3.75;2.10;;;14.40;95.30;;;;;;5094445;28;20248;-42
2021/05/22 08:13:54;;;;;;;9.02;6.00;;;14.20;95.40;;;;;;5094490;28;20238;-42
2021/05/22 08:16:21;;;;;;;3.70;2.95;;;14.10;96.10;;;;;;5094306;28;20627;-41
2021/05/22 08:18:50;;;;;;;4.93;1.17;;;14.00;95.90;;;;;;5094109;28;20264;-42
2021/05/22 08:21:22;;;;;;;6.13;3.15;;;14.10;95.70;;;;;;5094069;28;20217;-44
2021/05/22 08:23:50;;;;;;;7.50;2.72;;;14.30;95.60;;;;;;5094160;28;20230;-41
2021/05/22 08:26:18;;;;;;;6.68;1.33;;;14.30;95.20;;;;;;5094051;28;20289;-43
2021/05/22 08:29:06;;;;;;;4.03;1.58;;;14.20;95.10;;;;;;5093863;28;20211;-44
2021/05/22 08:31:33;;;;;;;2.78;0.98;;;14.20;95.00;;;;;;5093838;28;20246;-42
2021/05/22 08:34:02;;;;;;;2.33;1.75;;;14.30;94.70;;;;;;5093885;28;20306;-42
2021/05/22 08:36:32;;;;;;;2.95;2.05;;;14.60;94.50;;;;;;5093746;28;20233;-40
2021/05/22 08:38:59;;;;;;;10.93;7.22;;;14.90;93.90;;;;;;5093959;28;20260;-41
2021/05/22 08:41:33;;;;;;;7.03;6.18;;;15.10;93.70;;;;;;5093771;28;20231;-45
2021/05/22 08:44:01;;;;;;;2.58;1.27;;;15.30;93.60;;;;;;5093810;28;20284;-44
2021/05/22 08:46:30;;;;;;;5.90;2.72;;;15.40;92.90;;;;;;5094021;28;20607;-42
2021/05/22 08:48:59;;;;;;;5.15;1.33;;;15.30;93.10;;;;;;5093726;28;20242;-46
2021/05/22 08:51:27;;;;;;;3.90;1.65;;;15.00;92.70;;;;;;5093685;28;20250;-44
2021/05/22 08:53:55;;;;;;;3.30;1.10;;;14.70;93.20;;;;;;5093369;28;20273;-42
2021/05/22 08:56:22;;;;;;;7.00;1.80;;;14.50;93.40;;;;;;5093262;28;20376;-42
2021/05/22 08:58:50;;;;;;;1.88;1.20;;;14.40;93.70;;;;;;5093345;28;20207;-42
2021/05/22 09:01:17;;;;;;;3.65;1.27;;;14.30;93.60;;;;;;5093613;28;20234;-42
2021/05/22 09:03:46;;;;;;;2.90;1.50;;;14.40;93.70;;;;;;5093479;28;20203;-42
2021/05/22 09:06:14;;;;;;;1.92;1.23;;;14.50;93.20;;;;;;5093295;28;20664;-41
2021/05/22 09:08:42;;;;;;;3.33;1.30;;;14.60;93.20;;;;;;5093276;28;20657;-43
2021/05/22 09:11:09;;;;;;;3.40;1.63;;;14.60;93.20;;;;;;5093228;28;20249;-43
2021/05/22 09:13:37;;;;;;;3.25;1.42;;;14.50;93.40;;;;;;5092977;28;20704;-44
2021/05/22 09:16:06;;;;;;;3.58;1.23;;;14.50;93.60;;;;;;5093302;28;20203;-43
2021/05/22 09:18:36;;;;;;;4.43;0.95;;;14.60;93.40;;;;;;5092946;28;20242;-43
2021/05/22 09:21:05;;;;;;;2.78;1.58;;;14.70;93.20;;;;;;5093136;28;20290;-43
2021/05/22 09:23:35;;;;;;;1.73;1.00;;;14.90;93.10;;;;;;5092854;28;20203;-46
2021/05/22 09:26:06;;;;;;;2.10;1.40;;;14.90;92.60;;;;;;5093204;28;20595;-44
2021/05/22 09:28:35;;;;;;;3.38;1.08;;;15.00;92.60;;;;;;5092657;28;20260;-41
2021/05/22 09:31:05;;;;;;;3.58;1.20;;;15.20;92.20;;;;;;5092702;28;20242;-45
2021/05/22 09:33:35;;;;;;;2.47;0.90;;;15.40;91.80;;;;;;5092652;28;20314;-42
2021/05/22 09:36:07;;;;;;;3.88;1.63;;;15.50;91.60;;;;;;5092912;28;20728;-44
2021/05/22 09:38:35;;;;;;;1.90;1.13;;;15.70;91.20;;;;;;5092684;28;20327;-43
2021/05/22 09:41:17;;;;;;;9.35;1.77;;;15.90;90.80;;;;;;5092797;28;20217;-46
2021/05/22 09:44:07;;;;;;;6.05;1.38;;;16.00;90.00;;;;;;5092687;28;20285;-42
2021/05/22 09:46:35;;;;;;;3.97;1.58;;;16.10;88.40;;;;;;5092515;28;20210;-43
2021/05/22 09:49:04;;;;;;;17.27;2.80;;;16.00;89.60;;;;;;5092181;28;20289;-43
2021/05/22 09:51:32;;;;;;;9.32;1.77;;;15.90;89.50;;;;;;5092495;28;20206;-44
2021/05/22 09:53:59;;;;;;;7.03;1.75;;;15.90;90.10;;;;;;5092331;28;20258;-42
2021/05/22 09:56:28;;;;;;;3.90;1.33;;;15.90;89.20;;;;;;5092512;28;20218;-42
2021/05/22 09:58:56;;;;;;;2.80;1.58;;;15.70;88.80;;;;;;5092426;28;20289;-43
2021/05/22 10:01:29;;;;;;;4.57;1.30;;;15.70;88.90;;;;;;5092735;28;20242;-43
2021/05/22 10:04:15;;;;;;;3.30;1.27;;;15.70;89.20;;;;;;5092671;28;20264;-43
2021/05/22 10:06:43;;;;;;;4.03;1.38;;;15.90;88.90;;;;;;5092314;28;20232;-42
2021/05/22 10:09:13;;;;;;;2.55;1.10;;;15.90;88.80;;;;;;5092581;28;20293;-46
2021/05/22 10:12:03;;;;;;;2.85;0.98;;;16.10;88.30;;;;;;5091728;28;20620;-47
2021/05/22 10:14:33;;;;;;;3.67;1.35;;;16.30;87.60;;;;;;5091658;28;20249;-47
2021/05/22 10:17:02;;;;;;;3.08;0.88;;;16.50;86.60;;;;;;5091910;28;20209;-42
2021/05/22 10:19:31;;;;;;;2.05;0.82;;;16.60;86.00;;;;;;5091940;28;20268;-41
2021/05/22 10:21:59;;;;;;;2.70;1.27;;;16.70;85.40;;;;;;5092158;28;20206;-41
2021/05/22 10:24:28;;;;;;;2.38;1.23;;;16.50;85.70;;;;;;5092058;28;20726;-44
2021/05/22 10:26:57;;;;;;;3.20;1.20;;;16.30;85.80;;;;;;5091976;28;20233;-44
2021/05/22 10:29:26;;;;;;;5.55;1.50;;;16.30;85.90;;;;;;5091926;28;20242;-42
2021/05/22 10:31:54;;;;;;;2.92;1.23;;;16.30;85.10;;;;;;5091906;28;20203;-43
2021/05/22 10:34:26;;;;;;;4.75;1.20;;;16.30;85.30;;;;;;5092153;28;20236;-43
2021/05/22 10:36:56;;;;;;;4.32;1.27;;;16.30;85.40;;;;;;5091913;28;20722;-41
2021/05/22 10:39:39;;;;;;;4.18;1.40;;;16.30;85.50;;;;;;5091931;28;20752;-41
2021/05/22 10:42:09;;;;;;;3.20;1.48;;;16.40;84.50;;;;;;5092672;28;20255;-41
2021/05/22 10:44:39;;;;;;;2.72;1.20;;;16.50;84.30;;;;;;5092311;28;20238;-41
2021/05/22 10:47:12;;;;;;;2.33;1.30;;;16.70;83.90;;;;;;5091893;28;20613;-46
2021/05/22 10:49:53;;;;;;;1.55;1.00;;;16.90;84.10;;;;;;5092664;28;20210;-42
2021/05/22 10:52:22;;;;;;;3.83;1.17;;;17.10;82.70;;;;;;5092337;28;20249;-43
2021/05/22 10:55:05;;;;;;;2.13;1.00;;;17.20;82.90;;;;;;5091668;28;20430;-44
2021/05/22 10:57:52;;;;;;;1.65;1.10;;;17.20;81.00;;;;;;5092118;28;20254;-44
2021/05/22 11:00:23;;;;;;;5.10;1.55;;;17.10;82.10;;;;;;5091638;28;20219;-43
2021/05/22 11:02:52;;;;;;;3.20;1.02;;;16.90;81.50;;;;;;5095794;28;20210;-41
2021/05/22 11:05:37;;;;;;;3.50;1.40;;;16.80;82.60;;;;;;5095492;28;20267;-41
2021/05/22 11:08:27;;;;;;;3.58;0.88;;;16.80;82.50;;;;;;5095497;28;20228;-41
2021/05/22 11:10:59;;;;;;;3.53;1.40;;;16.80;81.40;;;;;;5095604;28;20210;-41
2021/05/22 11:13:40;;;;;;;1.38;0.82;;;16.90;81.90;;;;;;5095681;28;20317;-41
2021/05/22 11:16:08;;;;;;;3.50;1.15;;;17.00;80.60;;;;;;5094642;28;20636;-41
2021/05/22 11:19:04;;;;;;;3.47;1.63;;;17.20;80.90;;;;;;5095332;28;20728;-42
2021/05/22 11:21:32;;;;;;;2.95;1.30;;;17.20;78.80;;;;;;5059752;28;20217;-41
2021/05/22 11:24:08;;;;;;;4.88;1.30;;;17.10;79.70;;;;;;5095198;28;20256;-41
2021/05/22 11:27:02;;;;;;;3.75;1.50;;;16.90;79.70;;;;;;5095060;28;20680;-42
2021/05/22 11:29:57;;;;;;;2.15;0.85;;;16.90;77.70;;;;;;5066792;28;20210;-41
2021/05/22 11:32:51;;;;;;;4.35;1.45;;;17.00;78.10;;;;;;5094929;28;20260;-42
2021/05/22 11:35:47;;;;;;;5.05;1.67;;;17.10;78.00;;;;;;5094543;28;20211;-41
2021/05/22 11:38:38;;;;;;;3.33;0.90;;;17.10;76.30;;;;;;5094988;28;20211;-41
2021/05/22 11:41:21;;;;;;;2.60;1.38;;;17.30;77.00;;;;;;5094862;28;20305;-41
2021/05/22 11:43:49;;;;;;;4.75;1.27;;;17.50;77.50;;;;;;5094724;28;20210;-42
2021/05/22 11:46:17;;;;;;;2.33;1.00;;;17.70;76.20;;;;;;5094688;28;20271;-41
2021/05/22 11:48:49;;;;;;;2.00;0.90;;;17.90;75.10;;;;;;5094824;28;20248;-42
2021/05/22 11:51:20;;;;;;;2.58;0.85;;;18.00;74.10;;;;;;5094651;28;20213;-42
2021/05/22 11:53:53;;;;;;;2.65;1.40;;;18.00;73.80;;;;;;5094539;28;20657;-42
2021/05/22 11:56:21;;;;;;;2.05;0.80;;;17.90;73.80;;;;;;5094785;28;20242;-42
2021/05/22 11:58:51;;;;;;;1.55;1.05;;;17.80;72.30;;;;;;5094813;28;20291;-43
2021/05/22 12:01:20;;;;;;;2.25;0.60;;;17.70;71.20;;;;;;5094854;28;20665;-42
2021/05/22 12:03:49;;;;;;;2.63;0.95;;;17.60;71.10;;;;;;5094641;28;20677;-42
2021/05/22 12:06:30;;;;;;;1.05;0.73;;;17.70;70.90;;;;;;5094341;28;20289;-42
2021/05/22 12:09:09;;;;;;;1.50;0.80;;;17.80;69.40;;;;;;5094643;28;20313;-42
2021/05/22 12:11:42;;;;;;;1.83;0.88;;;17.90;68.70;;;;;;5094042;28;20289;-44
2021/05/22 12:14:10;;;;;;;2.42;0.90;;;18.00;69.20;;;;;;5094201;28;20223;-42
2021/05/22 12:16:38;;;;;;;1.33;1.10;;;18.00;68.70;;;;;;5094047;28;20211;-42
2021/05/22 12:19:17;;;;;;;2.88;0.80;;;17.90;67.70;;;;;;5094074;28;20236;-43
2021/05/22 12:21:50;;;;;;;3.47;1.00;;;17.80;67.60;;;;;;5094319;28;20242;-42
2021/05/22 12:24:18;;;;;;;1.63;0.90;;;17.80;68.40;;;;;;5094123;28;20687;-44
2021/05/22 12:26:54;;;;;;;0.70;0.70;;;17.80;68.40;;;;;;5094015;28;20211;-43
2021/05/22 12:29:23;;;;;;;1.25;0.80;;;17.90;68.20;;;;;;5094120;28;20256;-44
2021/05/22 12:31:53;;;;;;;1.52;1.00;;;17.90;67.60;;;;;;5094206;28;20294;-42
2021/05/22 12:34:27;;;;;;;2.20;0.90;;;17.90;66.90;;;;;;5093932;28;20237;-42
2021/05/22 12:37:00;;;;;;;1.52;1.10;;;17.90;66.90;;;;;;5094167;28;20397;-42
2021/05/22 12:39:37;;;;;;;1.35;0.93;;;18.20;66.90;;;;;;5094297;28;20214;-43
2021/05/22 12:42:26;;;;;;;2.42;1.08;;;18.40;64.70;;;;;;5093932;28;20292;-43
2021/05/22 12:44:55;;;;;;;0.80;0.43;;;18.50;63.40;;;;;;5089204;28;20244;-44
2021/05/22 12:47:35;;;;;;;2.90;1.05;;;18.40;63.60;;;;;;5093690;28;20669;-42
2021/05/22 12:50:07;;;;;;;2.83;1.20;;;18.30;64.30;;;;;;5093717;28;20217;-42
2021/05/22 12:52:49;;;;;;;2.42;0.88;;;18.30;64.30;;;;;;5093695;28;20301;-45
2021/05/22 12:55:21;;;;;;;1.42;0.85;;;18.50;64.10;;;;;;5093349;28;20731;-42
2021/05/22 12:57:49;;;;;;;1.65;0.77;;;18.70;63.50;;;;;;5093476;28;20250;-42
2021/05/22 13:00:17;;;;;;;1.75;0.95;;;18.80;63.00;;;;;;5093385;28;20253;-42
2021/05/22 13:02:50;;;;;;;2.90;0.85;;;18.90;63.20;;;;;;5093330;28;20323;-43
2021/05/22 13:05:21;;;;;;;1.75;0.95;;;18.90;62.30;;;;;;5093351;28;20242;-42